sensor_id;sensor_type;location;lat;lon;timestamp;P1;durP1;ratioP1;P2;durP2;ratioP2
80366;SDS011;70058;42.660;23.366;2023-05-19T00:01:42;10.65;;;6.47;;
80366;SDS011;70058;42.660;23.366;2023-05-19T00:04:09;10.73;;;6.30;;
80366;SDS011;70058;42.660;23.366;2023-05-19T00:06:38;11.90;;;6.40;;
80366;SDS011;70058;42.660;23.366;2023-05-19T00:09:06;9.98;;;6.45;;
80366;SDS011;70058;42.660;23.366;2023-05-19T00:11:33;11.70;;;6.70;;
80366;SDS011;70058;42.660;23.366;2023-05-19T00:14:00;12.13;;;6.28;;
80366;SDS011;70058;42.660;23.366;2023-05-19T00:16:28;10.15;;;6.05;;
80366;SDS011;70058;42.660;23.366;2023-05-19T00:18:55;10.95;;;6.68;;
80366;SDS011;70058;42.660;23.366;2023-05-19T00:21:22;9.88;;;6.63;;
80366;SDS011;70058;42.660;23.366;2023-05-19T00:23:47;11.68;;;6.75;;
80366;SDS011;70058;42.660;23.366;2023-05-19T00:26:13;10.45;;;6.63;;
80366;SDS011;70058;42.660;23.366;2023-05-19T00:28:39;10.23;;;7.18;;
80366;SDS011;70058;42.660;23.366;2023-05-19T00:31:05;10.82;;;6.80;;
80366;SDS011;70058;42.660;23.366;2023-05-19T00:33:31;10.88;;;6.82;;
80366;SDS011;70058;42.660;23.366;2023-05-19T00:35:59;12.60;;;6.68;;
80366;SDS011;70058;42.660;23.366;2023-05-19T00:38:30;11.30;;;6.97;;
80366;SDS011;70058;42.660;23.366;2023-05-19T00:40:57;10.00;;;6.20;;
80366;SDS011;70058;42.660;23.366;2023-05-19T00:43:23;11.93;;;6.75;;
80366;SDS011;70058;42.660;23.366;2023-05-19T00:45:49;11.75;;;6.78;;
80366;SDS011;70058;42.660;23.366;2023-05-19T00:48:15;13.02;;;7.20;;
80366;SDS011;70058;42.660;23.366;2023-05-19T00:50:41;14.93;;;7.28;;
80366;SDS011;70058;42.660;23.366;2023-05-19T00:53:07;11.02;;;7.28;;
80366;SDS011;70058;42.660;23.366;2023-05-19T00:55:33;12.88;;;7.57;;
80366;SDS011;70058;42.660;23.366;2023-05-19T00:58:02;13.93;;;8.32;;
80366;SDS011;70058;42.660;23.366;2023-05-19T01:00:29;16.65;;;8.40;;
80366;SDS011;70058;42.660;23.366;2023-05-19T01:02:55;13.00;;;7.40;;
80366;SDS011;70058;42.660;23.366;2023-05-19T01:05:21;12.63;;;7.93;;
80366;SDS011;70058;42.660;23.366;2023-05-19T01:07:47;12.57;;;8.25;;
80366;SDS011;70058;42.660;23.366;2023-05-19T01:10:21;13.35;;;9.20;;
80366;SDS011;70058;42.660;23.366;2023-05-19T01:12:46;13.10;;;8.30;;
80366;SDS011;70058;42.660;23.366;2023-05-19T01:15:13;16.58;;;9.23;;
80366;SDS011;70058;42.660;23.366;2023-05-19T01:17:52;15.30;;;9.00;;
80366;SDS011;70058;42.660;23.366;2023-05-19T01:20:23;16.60;;;9.00;;
80366;SDS011;70058;42.660;23.366;2023-05-19T01:26:10;18.42;;;11.00;;
80366;SDS011;70058;42.660;23.366;2023-05-19T01:31:32;16.00;;;9.95;;
80366;SDS011;70058;42.660;23.366;2023-05-19T01:34:01;18.02;;;11.38;;
80366;SDS011;70058;42.660;23.366;2023-05-19T01:36:28;18.83;;;10.95;;
80366;SDS011;70058;42.660;23.366;2023-05-19T01:38:57;17.35;;;11.32;;
80366;SDS011;70058;42.660;23.366;2023-05-19T01:41:23;16.98;;;11.10;;
80366;SDS011;70058;42.660;23.366;2023-05-19T01:43:52;19.48;;;11.48;;
80366;SDS011;70058;42.660;23.366;2023-05-19T01:46:18;17.45;;;11.25;;
80366;SDS011;70058;42.660;23.366;2023-05-19T01:48:45;18.33;;;10.77;;
80366;SDS011;70058;42.660;23.366;2023-05-19T01:51:12;16.23;;;10.73;;
80366;SDS011;70058;42.660;23.366;2023-05-19T01:53:38;13.88;;;9.82;;
80366;SDS011;70058;42.660;23.366;2023-05-19T01:56:04;18.10;;;10.55;;
80366;SDS011;70058;42.660;23.366;2023-05-19T01:58:39;16.80;;;11.10;;
80366;SDS011;70058;42.660;23.366;2023-05-19T02:11:39;16.42;;;10.60;;
80366;SDS011;70058;42.660;23.366;2023-05-19T02:14:27;16.90;;;10.10;;
80366;SDS011;70058;42.660;23.366;2023-05-19T02:16:56;18.95;;;10.73;;
80366;SDS011;70058;42.660;23.366;2023-05-19T02:19:24;19.20;;;10.73;;
80366;SDS011;70058;42.660;23.366;2023-05-19T02:21:51;18.73;;;11.00;;
80366;SDS011;70058;42.660;23.366;2023-05-19T02:24:18;18.88;;;11.35;;
80366;SDS011;70058;42.660;23.366;2023-05-19T02:26:47;18.17;;;11.38;;
80366;SDS011;70058;42.660;23.366;2023-05-19T02:29:16;16.83;;;10.35;;
80366;SDS011;70058;42.660;23.366;2023-05-19T02:31:42;18.50;;;11.57;;
80366;SDS011;70058;42.660;23.366;2023-05-19T02:34:08;19.35;;;11.48;;
80366;SDS011;70058;42.660;23.366;2023-05-19T02:36:34;21.15;;;12.30;;
80366;SDS011;70058;42.660;23.366;2023-05-19T02:39:01;18.90;;;11.60;;
80366;SDS011;70058;42.660;23.366;2023-05-19T02:41:27;20.50;;;12.52;;
80366;SDS011;70058;42.660;23.366;2023-05-19T02:43:53;21.63;;;12.77;;
80366;SDS011;70058;42.660;23.366;2023-05-19T02:46:19;19.50;;;11.98;;
80366;SDS011;70058;42.660;23.366;2023-05-19T02:48:44;19.30;;;11.75;;
80366;SDS011;70058;42.660;23.366;2023-05-19T02:51:10;22.55;;;12.80;;
80366;SDS011;70058;42.660;23.366;2023-05-19T02:53:36;18.35;;;11.88;;
80366;SDS011;70058;42.660;23.366;2023-05-19T02:56:01;20.20;;;11.43;;
80366;SDS011;70058;42.660;23.366;2023-05-19T02:58:27;19.63;;;12.00;;
80366;SDS011;70058;42.660;23.366;2023-05-19T03:00:53;17.70;;;11.50;;
80366;SDS011;70058;42.660;23.366;2023-05-19T03:03:20;18.92;;;11.27;;
80366;SDS011;70058;42.660;23.366;2023-05-19T03:05:45;21.00;;;11.60;;
80366;SDS011;70058;42.660;23.366;2023-05-19T03:08:11;20.80;;;12.43;;
80366;SDS011;70058;42.660;23.366;2023-05-19T03:10:37;18.83;;;11.27;;
80366;SDS011;70058;42.660;23.366;2023-05-19T03:13:03;19.30;;;11.70;;
80366;SDS011;70058;42.660;23.366;2023-05-19T03:15:29;19.27;;;11.80;;
80366;SDS011;70058;42.660;23.366;2023-05-19T03:17:56;22.33;;;12.50;;
80366;SDS011;70058;42.660;23.366;2023-05-19T03:20:22;20.60;;;11.98;;
80366;SDS011;70058;42.660;23.366;2023-05-19T03:22:48;18.77;;;12.25;;
80366;SDS011;70058;42.660;23.366;2023-05-19T03:25:14;23.33;;;13.32;;
80366;SDS011;70058;42.660;23.366;2023-05-19T03:27:40;20.08;;;12.50;;
80366;SDS011;70058;42.660;23.366;2023-05-19T03:30:07;21.90;;;13.32;;
80366;SDS011;70058;42.660;23.366;2023-05-19T03:32:33;22.48;;;13.20;;
80366;SDS011;70058;42.660;23.366;2023-05-19T03:35:01;22.20;;;13.07;;
80366;SDS011;70058;42.660;23.366;2023-05-19T03:37:28;21.65;;;12.60;;
80366;SDS011;70058;42.660;23.366;2023-05-19T03:39:54;23.92;;;12.93;;
80366;SDS011;70058;42.660;23.366;2023-05-19T03:42:20;21.20;;;13.70;;
80366;SDS011;70058;42.660;23.366;2023-05-19T03:44:45;23.30;;;12.70;;
80366;SDS011;70058;42.660;23.366;2023-05-19T03:47:11;23.77;;;12.70;;
80366;SDS011;70058;42.660;23.366;2023-05-19T03:49:37;18.02;;;11.90;;
80366;SDS011;70058;42.660;23.366;2023-05-19T03:52:02;19.50;;;11.80;;
80366;SDS011;70058;42.660;23.366;2023-05-19T03:54:28;20.60;;;11.82;;
80366;SDS011;70058;42.660;23.366;2023-05-19T03:56:54;17.20;;;10.80;;
80366;SDS011;70058;42.660;23.366;2023-05-19T03:59:19;19.42;;;11.38;;
80366;SDS011;70058;42.660;23.366;2023-05-19T04:01:47;19.77;;;11.30;;
80366;SDS011;70058;42.660;23.366;2023-05-19T04:04:13;17.27;;;10.93;;
80366;SDS011;70058;42.660;23.366;2023-05-19T04:06:39;19.92;;;11.88;;
80366;SDS011;70058;42.660;23.366;2023-05-19T04:09:09;17.45;;;11.48;;
80366;SDS011;70058;42.660;23.366;2023-05-19T04:11:36;16.42;;;10.50;;
80366;SDS011;70058;42.660;23.366;2023-05-19T04:14:03;16.45;;;10.15;;
80366;SDS011;70058;42.660;23.366;2023-05-19T04:16:29;14.98;;;9.38;;
80366;SDS011;70058;42.660;23.366;2023-05-19T04:18:55;19.15;;;9.10;;
80366;SDS011;70058;42.660;23.366;2023-05-19T04:21:21;14.05;;;8.57;;
80366;SDS011;70058;42.660;23.366;2023-05-19T04:23:47;12.10;;;8.60;;
80366;SDS011;70058;42.660;23.366;2023-05-19T04:26:13;15.45;;;9.38;;
80366;SDS011;70058;42.660;23.366;2023-05-19T04:28:39;15.90;;;9.15;;
80366;SDS011;70058;42.660;23.366;2023-05-19T04:31:06;14.27;;;8.95;;
80366;SDS011;70058;42.660;23.366;2023-05-19T04:33:36;14.80;;;9.45;;
80366;SDS011;70058;42.660;23.366;2023-05-19T04:36:03;15.98;;;9.32;;
80366;SDS011;70058;42.660;23.366;2023-05-19T04:38:32;17.17;;;9.90;;
80366;SDS011;70058;42.660;23.366;2023-05-19T04:40:58;19.48;;;9.88;;
80366;SDS011;70058;42.660;23.366;2023-05-19T04:43:25;13.88;;;9.48;;
80366;SDS011;70058;42.660;23.366;2023-05-19T04:45:52;15.43;;;10.07;;
80366;SDS011;70058;42.660;23.366;2023-05-19T04:48:18;15.13;;;10.30;;
80366;SDS011;70058;42.660;23.366;2023-05-19T04:50:47;17.67;;;10.07;;
80366;SDS011;70058;42.660;23.366;2023-05-19T04:53:15;17.23;;;10.35;;
80366;SDS011;70058;42.660;23.366;2023-05-19T04:55:41;18.20;;;10.48;;
80366;SDS011;70058;42.660;23.366;2023-05-19T04:58:08;19.38;;;10.90;;
80366;SDS011;70058;42.660;23.366;2023-05-19T05:00:33;17.52;;;10.35;;
80366;SDS011;70058;42.660;23.366;2023-05-19T05:03:00;20.50;;;11.15;;
80366;SDS011;70058;42.660;23.366;2023-05-19T05:05:29;18.88;;;10.60;;
80366;SDS011;70058;42.660;23.366;2023-05-19T05:07:55;17.90;;;10.32;;
80366;SDS011;70058;42.660;23.366;2023-05-19T05:10:21;18.00;;;10.98;;
80366;SDS011;70058;42.660;23.366;2023-05-19T05:12:47;15.45;;;10.02;;
80366;SDS011;70058;42.660;23.366;2023-05-19T05:15:13;15.43;;;10.65;;
80366;SDS011;70058;42.660;23.366;2023-05-19T05:17:39;15.35;;;10.25;;
80366;SDS011;70058;42.660;23.366;2023-05-19T05:20:05;16.55;;;10.18;;
80366;SDS011;70058;42.660;23.366;2023-05-19T05:22:32;19.08;;;10.23;;
80366;SDS011;70058;42.660;23.366;2023-05-19T05:24:58;18.80;;;9.82;;
80366;SDS011;70058;42.660;23.366;2023-05-19T05:27:23;16.30;;;10.30;;
80366;SDS011;70058;42.660;23.366;2023-05-19T05:29:50;17.90;;;10.10;;
80366;SDS011;70058;42.660;23.366;2023-05-19T05:32:15;16.88;;;10.25;;
80366;SDS011;70058;42.660;23.366;2023-05-19T05:34:41;19.33;;;10.73;;
80366;SDS011;70058;42.660;23.366;2023-05-19T05:37:07;19.08;;;10.07;;
80366;SDS011;70058;42.660;23.366;2023-05-19T05:39:33;14.13;;;9.40;;
80366;SDS011;70058;42.660;23.366;2023-05-19T05:41:58;16.35;;;9.50;;
80366;SDS011;70058;42.660;23.366;2023-05-19T05:44:24;14.85;;;9.52;;
80366;SDS011;70058;42.660;23.366;2023-05-19T05:46:50;17.13;;;9.52;;
80366;SDS011;70058;42.660;23.366;2023-05-19T05:49:19;18.27;;;9.85;;
80366;SDS011;70058;42.660;23.366;2023-05-19T05:51:45;15.85;;;9.23;;
80366;SDS011;70058;42.660;23.366;2023-05-19T05:54:11;15.10;;;7.90;;
80366;SDS011;70058;42.660;23.366;2023-05-19T05:56:38;13.13;;;7.47;;
80366;SDS011;70058;42.660;23.366;2023-05-19T05:59:05;15.35;;;7.43;;
80366;SDS011;70058;42.660;23.366;2023-05-19T06:01:31;13.25;;;7.25;;
80366;SDS011;70058;42.660;23.366;2023-05-19T06:03:57;12.32;;;7.60;;
80366;SDS011;70058;42.660;23.366;2023-05-19T06:06:22;12.30;;;7.80;;
80366;SDS011;70058;42.660;23.366;2023-05-19T06:08:48;14.32;;;8.60;;
80366;SDS011;70058;42.660;23.366;2023-05-19T06:11:14;14.43;;;7.70;;
80366;SDS011;70058;42.660;23.366;2023-05-19T06:13:39;11.05;;;7.70;;
80366;SDS011;70058;42.660;23.366;2023-05-19T06:16:05;11.77;;;7.13;;
80366;SDS011;70058;42.660;23.366;2023-05-19T06:18:31;12.10;;;7.93;;
80366;SDS011;70058;42.660;23.366;2023-05-19T06:20:57;11.07;;;6.70;;
80366;SDS011;70058;42.660;23.366;2023-05-19T06:23:23;12.75;;;7.03;;
80366;SDS011;70058;42.660;23.366;2023-05-19T06:25:50;10.05;;;6.60;;
80366;SDS011;70058;42.660;23.366;2023-05-19T06:28:16;14.82;;;6.07;;
80366;SDS011;70058;42.660;23.366;2023-05-19T06:30:41;15.02;;;6.55;;
80366;SDS011;70058;42.660;23.366;2023-05-19T06:33:07;12.18;;;5.85;;
80366;SDS011;70058;42.660;23.366;2023-05-19T06:35:33;8.10;;;5.50;;
80366;SDS011;70058;42.660;23.366;2023-05-19T06:37:58;11.75;;;5.80;;
80366;SDS011;70058;42.660;23.366;2023-05-19T06:40:24;9.57;;;5.28;;
80366;SDS011;70058;42.660;23.366;2023-05-19T06:42:50;11.77;;;5.75;;
80366;SDS011;70058;42.660;23.366;2023-05-19T06:45:15;10.32;;;5.40;;
80366;SDS011;70058;42.660;23.366;2023-05-19T06:47:45;10.75;;;7.03;;
80366;SDS011;70058;42.660;23.366;2023-05-19T06:50:11;11.88;;;6.15;;
80366;SDS011;70058;42.660;23.366;2023-05-19T06:52:37;9.75;;;5.78;;
80366;SDS011;70058;42.660;23.366;2023-05-19T06:55:02;9.60;;;5.38;;
80366;SDS011;70058;42.660;23.366;2023-05-19T06:57:28;9.13;;;4.80;;
80366;SDS011;70058;42.660;23.366;2023-05-19T06:59:54;9.38;;;4.65;;
80366;SDS011;70058;42.660;23.366;2023-05-19T07:02:20;10.65;;;5.50;;
80366;SDS011;70058;42.660;23.366;2023-05-19T07:04:45;9.23;;;4.80;;
80366;SDS011;70058;42.660;23.366;2023-05-19T07:07:11;8.93;;;5.57;;
80366;SDS011;70058;42.660;23.366;2023-05-19T07:09:37;9.35;;;4.97;;
80366;SDS011;70058;42.660;23.366;2023-05-19T07:12:04;9.70;;;5.50;;
80366;SDS011;70058;42.660;23.366;2023-05-19T07:14:29;12.70;;;6.00;;
80366;SDS011;70058;42.660;23.366;2023-05-19T07:16:55;10.02;;;5.80;;
80366;SDS011;70058;42.660;23.366;2023-05-19T07:19:21;7.38;;;4.80;;
80366;SDS011;70058;42.660;23.366;2023-05-19T07:21:47;8.60;;;4.95;;
80366;SDS011;70058;42.660;23.366;2023-05-19T07:24:13;9.57;;;4.97;;
80366;SDS011;70058;42.660;23.366;2023-05-19T07:26:39;10.10;;;5.78;;
80366;SDS011;70058;42.660;23.366;2023-05-19T07:29:06;9.50;;;5.20;;
80366;SDS011;70058;42.660;23.366;2023-05-19T07:31:32;9.57;;;4.88;;
80366;SDS011;70058;42.660;23.366;2023-05-19T07:33:58;7.28;;;4.85;;
80366;SDS011;70058;42.660;23.366;2023-05-19T07:36:23;8.75;;;5.10;;
80366;SDS011;70058;42.660;23.366;2023-05-19T07:38:49;7.57;;;4.35;;
80366;SDS011;70058;42.660;23.366;2023-05-19T07:41:15;7.78;;;4.50;;
80366;SDS011;70058;42.660;23.366;2023-05-19T07:43:41;10.77;;;5.40;;
80366;SDS011;70058;42.660;23.366;2023-05-19T07:46:06;13.32;;;5.00;;
80366;SDS011;70058;42.660;23.366;2023-05-19T07:48:32;9.60;;;5.93;;
80366;SDS011;70058;42.660;23.366;2023-05-19T07:50:58;9.68;;;5.72;;
80366;SDS011;70058;42.660;23.366;2023-05-19T07:53:23;10.02;;;5.55;;
80366;SDS011;70058;42.660;23.366;2023-05-19T07:55:50;10.88;;;5.72;;
80366;SDS011;70058;42.660;23.366;2023-05-19T07:58:15;10.45;;;5.55;;
80366;SDS011;70058;42.660;23.366;2023-05-19T08:00:41;12.48;;;5.32;;
80366;SDS011;70058;42.660;23.366;2023-05-19T08:03:10;11.98;;;5.88;;
80366;SDS011;70058;42.660;23.366;2023-05-19T08:05:36;12.02;;;5.80;;
80366;SDS011;70058;42.660;23.366;2023-05-19T08:08:02;10.27;;;5.93;;
80366;SDS011;70058;42.660;23.366;2023-05-19T08:10:28;12.15;;;6.38;;
80366;SDS011;70058;42.660;23.366;2023-05-19T08:12:54;9.88;;;6.38;;
80366;SDS011;70058;42.660;23.366;2023-05-19T08:15:19;12.45;;;6.75;;
80366;SDS011;70058;42.660;23.366;2023-05-19T08:17:45;10.32;;;6.50;;
80366;SDS011;70058;42.660;23.366;2023-05-19T08:20:11;12.93;;;7.07;;
80366;SDS011;70058;42.660;23.366;2023-05-19T08:22:38;11.57;;;6.65;;
80366;SDS011;70058;42.660;23.366;2023-05-19T08:25:04;11.93;;;6.50;;
80366;SDS011;70058;42.660;23.366;2023-05-19T08:27:40;11.05;;;6.60;;
80366;SDS011;70058;42.660;23.366;2023-05-19T08:30:06;10.35;;;6.72;;
80366;SDS011;70058;42.660;23.366;2023-05-19T08:32:32;11.85;;;6.18;;
80366;SDS011;70058;42.660;23.366;2023-05-19T08:34:58;12.07;;;6.43;;
80366;SDS011;70058;42.660;23.366;2023-05-19T08:37:26;14.48;;;6.43;;
80366;SDS011;70058;42.660;23.366;2023-05-19T08:40:02;9.82;;;6.63;;
80366;SDS011;70058;42.660;23.366;2023-05-19T08:42:32;10.77;;;6.88;;
80366;SDS011;70058;42.660;23.366;2023-05-19T08:44:59;18.80;;;11.02;;
80366;SDS011;70058;42.660;23.366;2023-05-19T08:47:25;16.98;;;9.60;;
80366;SDS011;70058;42.660;23.366;2023-05-19T08:49:52;14.80;;;8.63;;
80366;SDS011;70058;42.660;23.366;2023-05-19T08:52:28;11.45;;;7.13;;
80366;SDS011;70058;42.660;23.366;2023-05-19T08:55:08;13.27;;;7.50;;
80366;SDS011;70058;42.660;23.366;2023-05-19T08:57:41;12.27;;;7.65;;
80366;SDS011;70058;42.660;23.366;2023-05-19T09:00:07;13.40;;;7.18;;
80366;SDS011;70058;42.660;23.366;2023-05-19T09:02:36;11.70;;;6.97;;
80366;SDS011;70058;42.660;23.366;2023-05-19T09:05:03;12.55;;;6.65;;
80366;SDS011;70058;42.660;23.366;2023-05-19T09:07:30;10.90;;;7.00;;
80366;SDS011;70058;42.660;23.366;2023-05-19T09:09:58;14.77;;;6.57;;
80366;SDS011;70058;42.660;23.366;2023-05-19T09:12:25;17.38;;;7.35;;
80366;SDS011;70058;42.660;23.366;2023-05-19T09:14:51;9.57;;;7.07;;
80366;SDS011;70058;42.660;23.366;2023-05-19T09:17:17;11.27;;;7.53;;
80366;SDS011;70058;42.660;23.366;2023-05-19T09:19:44;9.57;;;6.55;;
80366;SDS011;70058;42.660;23.366;2023-05-19T09:22:13;12.73;;;6.88;;
80366;SDS011;70058;42.660;23.366;2023-05-19T09:24:40;12.63;;;7.00;;
80366;SDS011;70058;42.660;23.366;2023-05-19T09:27:06;9.25;;;6.75;;
80366;SDS011;70058;42.660;23.366;2023-05-19T09:29:32;15.15;;;7.10;;
80366;SDS011;70058;42.660;23.366;2023-05-19T09:31:58;10.68;;;7.10;;
80366;SDS011;70058;42.660;23.366;2023-05-19T09:34:29;13.77;;;6.72;;
80366;SDS011;70058;42.660;23.366;2023-05-19T09:36:55;12.25;;;7.57;;
80366;SDS011;70058;42.660;23.366;2023-05-19T09:39:22;10.25;;;6.95;;
80366;SDS011;70058;42.660;23.366;2023-05-19T09:41:52;12.05;;;7.35;;
80366;SDS011;70058;42.660;23.366;2023-05-19T09:46:50;11.68;;;7.35;;
80366;SDS011;70058;42.660;23.366;2023-05-19T09:49:17;13.48;;;8.15;;
80366;SDS011;70058;42.660;23.366;2023-05-19T09:51:52;12.50;;;7.47;;
80366;SDS011;70058;42.660;23.366;2023-05-19T09:54:21;12.50;;;7.90;;
80366;SDS011;70058;42.660;23.366;2023-05-19T09:59:23;15.18;;;7.97;;
80366;SDS011;70058;42.660;23.366;2023-05-19T10:01:51;17.77;;;8.13;;
80366;SDS011;70058;42.660;23.366;2023-05-19T10:04:24;15.35;;;8.40;;
80366;SDS011;70058;42.660;23.366;2023-05-19T10:06:55;12.95;;;7.82;;
80366;SDS011;70058;42.660;23.366;2023-05-19T10:09:26;12.02;;;8.05;;
80366;SDS011;70058;42.660;23.366;2023-05-19T10:11:53;12.52;;;7.65;;
80366;SDS011;70058;42.660;23.366;2023-05-19T10:14:24;13.57;;;6.43;;
80366;SDS011;70058;42.660;23.366;2023-05-19T10:16:52;16.20;;;8.52;;
80366;SDS011;70058;42.660;23.366;2023-05-19T10:19:20;13.65;;;7.93;;
80366;SDS011;70058;42.660;23.366;2023-05-19T10:21:50;11.88;;;7.80;;
80366;SDS011;70058;42.660;23.366;2023-05-19T10:24:16;14.65;;;8.73;;
80366;SDS011;70058;42.660;23.366;2023-05-19T10:26:43;15.27;;;8.18;;
80366;SDS011;70058;42.660;23.366;2023-05-19T10:29:14;13.40;;;7.32;;
80366;SDS011;70058;42.660;23.366;2023-05-19T10:31:42;15.73;;;7.93;;
80366;SDS011;70058;42.660;23.366;2023-05-19T10:34:19;17.02;;;9.25;;
80366;SDS011;70058;42.660;23.366;2023-05-19T10:36:48;15.55;;;8.52;;
80366;SDS011;70058;42.660;23.366;2023-05-19T10:39:33;12.27;;;8.45;;
80366;SDS011;70058;42.660;23.366;2023-05-19T10:42:08;16.13;;;8.90;;
80366;SDS011;70058;42.660;23.366;2023-05-19T10:47:26;19.73;;;8.80;;
80366;SDS011;70058;42.660;23.366;2023-05-19T10:49:54;13.82;;;8.50;;
80366;SDS011;70058;42.660;23.366;2023-05-19T10:52:21;16.40;;;8.75;;
80366;SDS011;70058;42.660;23.366;2023-05-19T10:54:49;18.45;;;9.30;;
80366;SDS011;70058;42.660;23.366;2023-05-19T10:57:16;13.98;;;8.38;;
80366;SDS011;70058;42.660;23.366;2023-05-19T10:59:42;15.15;;;8.55;;
80366;SDS011;70058;42.660;23.366;2023-05-19T11:02:35;13.65;;;7.88;;
80366;SDS011;70058;42.660;23.366;2023-05-19T11:05:15;20.35;;;8.80;;
80366;SDS011;70058;42.660;23.366;2023-05-19T11:07:55;18.13;;;8.50;;
80366;SDS011;70058;42.660;23.366;2023-05-19T11:10:26;15.85;;;8.73;;
80366;SDS011;70058;42.660;23.366;2023-05-19T11:12:51;16.35;;;8.75;;
80366;SDS011;70058;42.660;23.366;2023-05-19T11:15:20;15.23;;;7.82;;
80366;SDS011;70058;42.660;23.366;2023-05-19T11:17:50;15.27;;;8.15;;
80366;SDS011;70058;42.660;23.366;2023-05-19T11:20:26;15.90;;;8.48;;
80366;SDS011;70058;42.660;23.366;2023-05-19T11:23:35;12.38;;;8.27;;
80366;SDS011;70058;42.660;23.366;2023-05-19T11:28:11;12.82;;;8.48;;
80366;SDS011;70058;42.660;23.366;2023-05-19T11:30:41;13.60;;;8.15;;
80366;SDS011;70058;42.660;23.366;2023-05-19T11:33:09;11.30;;;7.50;;
80366;SDS011;70058;42.660;23.366;2023-05-19T11:35:34;16.38;;;8.32;;
80366;SDS011;70058;42.660;23.366;2023-05-19T11:38:01;13.18;;;8.65;;
80366;SDS011;70058;42.660;23.366;2023-05-19T11:40:27;12.73;;;7.47;;
80366;SDS011;70058;42.660;23.366;2023-05-19T11:42:53;13.25;;;8.18;;
80366;SDS011;70058;42.660;23.366;2023-05-19T11:45:25;16.45;;;8.48;;
80366;SDS011;70058;42.660;23.366;2023-05-19T11:47:53;11.90;;;7.50;;
80366;SDS011;70058;42.660;23.366;2023-05-19T11:50:20;11.27;;;8.07;;
80366;SDS011;70058;42.660;23.366;2023-05-19T11:52:47;18.75;;;8.77;;
80366;SDS011;70058;42.660;23.366;2023-05-19T11:55:17;13.98;;;8.20;;
80366;SDS011;70058;42.660;23.366;2023-05-19T12:00:24;13.70;;;8.63;;
80366;SDS011;70058;42.660;23.366;2023-05-19T12:02:50;14.63;;;7.10;;
80366;SDS011;70058;42.660;23.366;2023-05-19T12:05:20;18.10;;;7.07;;
80366;SDS011;70058;42.660;23.366;2023-05-19T12:07:47;14.73;;;8.63;;
80366;SDS011;70058;42.660;23.366;2023-05-19T12:10:15;13.27;;;7.70;;
80366;SDS011;70058;42.660;23.366;2023-05-19T12:12:51;14.77;;;6.43;;
80366;SDS011;70058;42.660;23.366;2023-05-19T12:15:18;12.40;;;6.75;;
80366;SDS011;70058;42.660;23.366;2023-05-19T12:17:48;12.15;;;7.00;;
80366;SDS011;70058;42.660;23.366;2023-05-19T12:20:24;13.43;;;6.25;;
80366;SDS011;70058;42.660;23.366;2023-05-19T12:22:51;13.63;;;6.80;;
80366;SDS011;70058;42.660;23.366;2023-05-19T12:25:19;13.57;;;7.03;;
80366;SDS011;70058;42.660;23.366;2023-05-19T12:27:45;13.10;;;6.50;;
80366;SDS011;70058;42.660;23.366;2023-05-19T12:30:13;14.45;;;7.57;;
80366;SDS011;70058;42.660;23.366;2023-05-19T12:32:39;14.82;;;7.97;;
80366;SDS011;70058;42.660;23.366;2023-05-19T12:35:05;11.93;;;6.72;;
80366;SDS011;70058;42.660;23.366;2023-05-19T12:37:31;15.90;;;5.90;;
80366;SDS011;70058;42.660;23.366;2023-05-19T12:39:59;12.27;;;6.75;;
80366;SDS011;70058;42.660;23.366;2023-05-19T12:42:28;11.35;;;6.50;;
80366;SDS011;70058;42.660;23.366;2023-05-19T12:47:30;12.57;;;7.13;;
80366;SDS011;70058;42.660;23.366;2023-05-19T12:52:54;13.95;;;7.18;;
80366;SDS011;70058;42.660;23.366;2023-05-19T12:55:19;11.60;;;7.05;;
80366;SDS011;70058;42.660;23.366;2023-05-19T12:57:49;13.05;;;6.75;;
80366;SDS011;70058;42.660;23.366;2023-05-19T13:00:20;9.38;;;5.80;;
80366;SDS011;70058;42.660;23.366;2023-05-19T13:05:32;10.13;;;5.80;;
80366;SDS011;70058;42.660;23.366;2023-05-19T13:08:00;10.05;;;5.85;;
80366;SDS011;70058;42.660;23.366;2023-05-19T13:10:28;11.55;;;6.00;;
80366;SDS011;70058;42.660;23.366;2023-05-19T13:12:55;11.82;;;6.07;;
80366;SDS011;70058;42.660;23.366;2023-05-19T13:15:23;12.30;;;6.15;;
80366;SDS011;70058;42.660;23.366;2023-05-19T13:17:53;12.32;;;5.88;;
80366;SDS011;70058;42.660;23.366;2023-05-19T13:20:19;14.38;;;6.57;;
80366;SDS011;70058;42.660;23.366;2023-05-19T13:22:48;12.93;;;6.38;;
80366;SDS011;70058;42.660;23.366;2023-05-19T13:25:15;9.55;;;6.35;;
80366;SDS011;70058;42.660;23.366;2023-05-19T13:27:41;15.27;;;6.43;;
80366;SDS011;70058;42.660;23.366;2023-05-19T13:30:08;12.60;;;6.03;;
80366;SDS011;70058;42.660;23.366;2023-05-19T13:32:34;10.75;;;5.85;;
80366;SDS011;70058;42.660;23.366;2023-05-19T13:35:00;12.27;;;6.03;;
80366;SDS011;70058;42.660;23.366;2023-05-19T13:37:26;13.38;;;6.20;;
80366;SDS011;70058;42.660;23.366;2023-05-19T13:39:52;9.55;;;5.43;;
80366;SDS011;70058;42.660;23.366;2023-05-19T13:42:18;12.13;;;6.50;;
80366;SDS011;70058;42.660;23.366;2023-05-19T13:44:44;11.38;;;5.90;;
80366;SDS011;70058;42.660;23.366;2023-05-19T13:47:10;16.98;;;6.47;;
80366;SDS011;70058;42.660;23.366;2023-05-19T13:49:36;12.95;;;6.15;;
80366;SDS011;70058;42.660;23.366;2023-05-19T13:52:02;15.35;;;6.55;;
80366;SDS011;70058;42.660;23.366;2023-05-19T13:54:28;12.60;;;6.57;;
80366;SDS011;70058;42.660;23.366;2023-05-19T13:56:54;16.27;;;5.90;;
80366;SDS011;70058;42.660;23.366;2023-05-19T13:59:20;10.63;;;6.25;;
80366;SDS011;70058;42.660;23.366;2023-05-19T14:01:46;12.00;;;6.15;;
80366;SDS011;70058;42.660;23.366;2023-05-19T14:04:12;10.18;;;6.50;;
80366;SDS011;70058;42.660;23.366;2023-05-19T14:06:40;12.52;;;5.90;;
80366;SDS011;70058;42.660;23.366;2023-05-19T14:09:05;13.63;;;6.85;;
80366;SDS011;70058;42.660;23.366;2023-05-19T14:11:31;13.85;;;7.03;;
80366;SDS011;70058;42.660;23.366;2023-05-19T14:13:57;11.57;;;6.15;;
80366;SDS011;70058;42.660;23.366;2023-05-19T14:16:22;11.55;;;7.38;;
80366;SDS011;70058;42.660;23.366;2023-05-19T14:18:50;13.02;;;6.80;;
80366;SDS011;70058;42.660;23.366;2023-05-19T14:21:16;11.18;;;6.45;;
80366;SDS011;70058;42.660;23.366;2023-05-19T14:23:42;12.13;;;6.40;;
80366;SDS011;70058;42.660;23.366;2023-05-19T14:26:08;13.93;;;6.97;;
80366;SDS011;70058;42.660;23.366;2023-05-19T14:28:33;11.27;;;6.40;;
80366;SDS011;70058;42.660;23.366;2023-05-19T14:30:59;11.05;;;6.60;;
80366;SDS011;70058;42.660;23.366;2023-05-19T14:33:25;12.48;;;7.38;;
80366;SDS011;70058;42.660;23.366;2023-05-19T14:35:51;12.07;;;6.60;;
80366;SDS011;70058;42.660;23.366;2023-05-19T14:38:16;17.52;;;7.50;;
80366;SDS011;70058;42.660;23.366;2023-05-19T14:40:42;13.27;;;6.72;;
80366;SDS011;70058;42.660;23.366;2023-05-19T14:43:08;11.05;;;6.95;;
80366;SDS011;70058;42.660;23.366;2023-05-19T14:45:34;13.70;;;5.25;;
80366;SDS011;70058;42.660;23.366;2023-05-19T14:48:00;11.48;;;6.57;;
80366;SDS011;70058;42.660;23.366;2023-05-19T14:50:26;10.85;;;5.95;;
80366;SDS011;70058;42.660;23.366;2023-05-19T14:52:52;18.10;;;6.50;;
80366;SDS011;70058;42.660;23.366;2023-05-19T14:55:18;12.50;;;5.32;;
80366;SDS011;70058;42.660;23.366;2023-05-19T14:57:44;12.75;;;6.47;;